Observation data for Haskell on 11/17/2019      Previous  Date  Next       Current Mesonet Observations  Soil Data  Daily Summary Page  Observations in Plain Language
KHA1 170600Z 17007KT 10/01 A2998 RMK A01 T00950013  RH  057%=      5-min Rain = 0
KHA1 170605Z 17006KT 10/01 A2998 RMK A01 T00950013  RH  057%=      5-min Rain = 0
KHA1 170610Z 17006KT 10/01 A2998 RMK A01 T00950014  RH  058%=      5-min Rain = 0
KHA1 170615Z 17006KT 10/02 A2998 RMK A01 T00960015  RH  058%=      5-min Rain = 0
KHA1 170620Z 17006KT 10/02 A2998 RMK A01 T00950015  RH  058%=      5-min Rain = 0
KHA1 170625Z 17005KT 09/02 A2998 RMK A01 T00930015  RH  059%=      5-min Rain = 0
KHA1 170630Z 16004KT 09/02 A2998 RMK A01 T00930016  RH  059%=      5-min Rain = 0
KHA1 170635Z 17004KT 09/02 A2998 RMK A01 T00930016  RH  060%=      5-min Rain = 0
KHA1 170640Z 17003KT 09/02 A2998 RMK A01 T00910016  RH  060%=      5-min Rain = 0
KHA1 170645Z 17003KT 09/02 A2998 RMK A01 T00890015  RH  061%=      5-min Rain = 0
KHA1 170650Z 17003KT 09/01 A2998 RMK A01 T00850014  RH  062%=      5-min Rain = 0
KHA1 170655Z 17004KT 08/02 A2998 RMK A01 T00830015  RH  063%=      5-min Rain = 0
KHA1 170700Z 17003KT 08/02 A2998 RMK A01 T00840016  RH  063%=      5-min Rain = 0
KHA1 170705Z 17004KT 08/02 A2998 RMK A01 T00830016  RH  063%=      5-min Rain = 0
KHA1 170710Z 17005KT 08/02 A2998 RMK A01 T00830016  RH  063%=      5-min Rain = 0
KHA1 170715Z 16005KT 08/02 A2998 RMK A01 T00840018  RH  064%=      5-min Rain = 0
KHA1 170720Z 17005KT 09/02 A2998 RMK A01 T00860019  RH  064%=      5-min Rain = 0
KHA1 170725Z 17004KT 09/02 A2998 RMK A01 T00850019  RH  064%=      5-min Rain = 0
KHA1 170730Z 16004KT 08/02 A2998 RMK A01 T00840018  RH  064%=      5-min Rain = 0
KHA1 170735Z 15003KT 08/02 A2998 RMK A01 T00830018  RH  065%=      5-min Rain = 0
KHA1 170740Z 15003KT 08/02 A2999 RMK A01 T00820017  RH  065%=      5-min Rain = 0
KHA1 170745Z 15003KT 08/02 A2998 RMK A01 T00810017  RH  065%=      5-min Rain = 0
KHA1 170750Z 14003KT 08/02 A2998 RMK A01 T00800016  RH  065%=      5-min Rain = 0
KHA1 170755Z 15004KT 08/02 A2998 RMK A01 T00780016  RH  066%=      5-min Rain = 0
KHA1 170800Z 15004KT 08/02 A2998 RMK A01 T00780017  RH  067%=      5-min Rain = 0
KHA1 170805Z 15003KT 08/02 A2998 RMK A01 T00770018  RH  067%=      5-min Rain = 0
KHA1 170810Z 15002KT 08/02 A2998 RMK A01 T00770018  RH  067%=      5-min Rain = 0
KHA1 170815Z 15003KT 08/02 A2998 RMK A01 T00770018  RH  067%=      5-min Rain = 0
KHA1 170820Z 15003KT 08/02 A2998 RMK A01 T00770018  RH  067%=      5-min Rain = 0
KHA1 170825Z 14004KT 08/02 A2998 RMK A01 T00750018  RH  068%=      5-min Rain = 0
KHA1 170830Z 14003KT 08/02 A2998 RMK A01 T00750019  RH  069%=      5-min Rain = 0
KHA1 170835Z 12002KT 07/02 A2998 RMK A01 T00740018  RH  069%=      5-min Rain = 0
KHA1 170840Z 13003KT 07/02 A2998 RMK A01 T00740018  RH  069%=      5-min Rain = 0
KHA1 170845Z 14003KT 07/02 A2998 RMK A01 T00720018  RH  070%=      5-min Rain = 0
KHA1 170850Z 14003KT 07/02 A2998 RMK A01 T00720020  RH  070%=      5-min Rain = 0
KHA1 170855Z 12003KT 07/02 A2998 RMK A01 T00710020  RH  071%=      5-min Rain = 0
KHA1 170900Z 13004KT 07/02 A2997 RMK A01 T00700021  RH  072%=      5-min Rain = 0
KHA1 170905Z 14004KT 07/02 A2997 RMK A01 T00710024  RH  073%=      5-min Rain = 0
KHA1 170910Z 14004KT 07/03 A2997 RMK A01 T00730025  RH  073%=      5-min Rain = 0
KHA1 170915Z 15004KT 07/03 A2997 RMK A01 T00730026  RH  073%=      5-min Rain = 0
KHA1 170920Z 15004KT 07/03 A2997 RMK A01 T00740026  RH  073%=      5-min Rain = 0
KHA1 170925Z 16004KT 07/03 A2997 RMK A01 T00740027  RH  073%=      5-min Rain = 0
KHA1 170930Z 16004KT 08/03 A2997 RMK A01 T00760029  RH  073%=      5-min Rain = 0
KHA1 170935Z 15004KT 08/03 A2997 RMK A01 T00760029  RH  074%=      5-min Rain = 0
KHA1 170940Z 15004KT 08/03 A2997 RMK A01 T00750029  RH  074%=      5-min Rain = 0
KHA1 170945Z 15004KT 07/03 A2997 RMK A01 T00730028  RH  074%=      5-min Rain = 0
KHA1 170950Z 16002KT 07/03 A2998 RMK A01 T00720028  RH  075%=      5-min Rain = 0
KHA1 170955Z 17002KT 07/03 A2998 RMK A01 T00720029  RH  075%=      5-min Rain = 0
KHA1 171000Z 17003KT 07/03 A2998 RMK A01 T00710028  RH  075%=      5-min Rain = 0
KHA1 171005Z 17003KT 07/03 A2998 RMK A01 T00690026  RH  076%=      5-min Rain = 0
KHA1 171010Z 18002KT 06/03 A2998 RMK A01 T00640025  RH  077%=      5-min Rain = 0
KHA1 171015Z 18002KT 06/03 A2998 RMK A01 T00640027  RH  078%=      5-min Rain = 0
KHA1 171020Z 17001KT 06/02 A2998 RMK A01 T00590020  RH  078%=      5-min Rain = 0
KHA1 171025Z 17002KT 05/01 A2998 RMK A01 T00470009  RH  078%=      5-min Rain = 0
KHA1 171030Z 17004KT 05/02 A2997 RMK A01 T00500020  RH  082%=      5-min Rain = 0
KHA1 171035Z 17003KT 06/03 A2997 RMK A01 T00580027  RH  082%=      5-min Rain = 0
KHA1 171040Z 17001KT 05/02 A2998 RMK A01 T00500016  RH  080%=      5-min Rain = 0
KHA1 171045Z 00000KT 03/M00 A2998 RMK A01 T00301001  RH  081%=      5-min Rain = 0
KHA1 171050Z 36001KT 03/00 A2999 RMK A01 T00270001  RH  084%=      5-min Rain = 0
KHA1 171055Z 00001KT 03/00 A2999 RMK A01 T00270004  RH  086%=      5-min Rain = 0
KHA1 171100Z 11001KT 03/00 A2998 RMK A01 T00260004  RH  087%=      5-min Rain = 0
KHA1 171105Z 15001KT 03/01 A2998 RMK A01 T00280008  RH  088%=      5-min Rain = 0
KHA1 171110Z 16000KT 03/01 A2999 RMK A01 T00310012  RH  088%=      5-min Rain = 0
KHA1 171115Z 16001KT 03/01 A2998 RMK A01 T00340014  RH  088%=      5-min Rain = 0
KHA1 171120Z 18001KT 03/01 A2999 RMK A01 T00340014  RH  088%=      5-min Rain = 0
KHA1 171125Z 24002KT 04/01 A2999 RMK A01 T00350014  RH  088%=      5-min Rain = 0
KHA1 171130Z 22001KT 03/00 A2999 RMK A01 T00260004  RH  087%=      5-min Rain = 0
KHA1 171135Z 18002KT 02/00 A2999 RMK A01 T00240004  RH  088%=      5-min Rain = 0
KHA1 171140Z 18003KT 03/01 A2999 RMK A01 T00320014  RH  089%=      5-min Rain = 0
KHA1 171145Z 19005KT 04/02 A2999 RMK A01 T00350016  RH  089%=      5-min Rain = 0
KHA1 171150Z 19005KT 04/02 A2999 RMK A01 T00350015  RH  088%=      5-min Rain = 0
KHA1 171155Z 19005KT 03/02 A2999 RMK A01 T00340015  RH  088%=      5-min Rain = 0
KHA1 171200Z 19005KT 04/02 A2999 RMK A01 T00370018  RH  089%=      5-min Rain = 0
KHA1 171205Z 20004KT 04/02 A30 RMK A01 T00360016  RH  088%=      5-min Rain = 0
KHA1 171210Z 22004KT 04/02 A30 RMK A01 T00350015  RH  088%=      5-min Rain = 0
KHA1 171215Z 23004KT 04/02 A30 RMK A01 T00350015  RH  088%=      5-min Rain = 0
KHA1 171220Z 25004KT 03/01 A3001 RMK A01 T00290009  RH  087%=      5-min Rain = 0
KHA1 171225Z 25005KT 03/01 A3001 RMK A01 T00290010  RH  088%=      5-min Rain = 0
KHA1 171230Z 24005KT 03/01 A3001 RMK A01 T00300011  RH  089%=      5-min Rain = 0
KHA1 171235Z 23004KT 03/01 A3001 RMK A01 T00290011  RH  089%=      5-min Rain = 0
KHA1 171240Z 22005KT 03/01 A3002 RMK A01 T00310014  RH  090%=      5-min Rain = 0
KHA1 171245Z 21005KT 04/02 A3001 RMK A01 T00370020  RH  090%=      5-min Rain = 0
KHA1 171250Z 21005KT 04/02 A3002 RMK A01 T00390021  RH  089%=      5-min Rain = 0
KHA1 171255Z 23005KT 04/02 A3002 RMK A01 T00380018  RH  088%=      5-min Rain = 0
KHA1 171300Z 24005KT 04/02 A3003 RMK A01 T00370018  RH  089%=      5-min Rain = 0
KHA1 171305Z 24005KT 04/02 A3003 RMK A01 T00370017  RH  088%=      5-min Rain = 0
KHA1 171310Z 25005KT 04/02 A3003 RMK A01 T00380019  RH  089%=      5-min Rain = 0
KHA1 171315Z 25006KT 04/02 A3003 RMK A01 T00370018  RH  089%=      5-min Rain = 0
KHA1 171320Z 27004KT 03/01 A3004 RMK A01 T00340014  RH  088%=      5-min Rain = 0
KHA1 171325Z 27006KT 03/01 A3004 RMK A01 T00310013  RH  089%=      5-min Rain = 0
KHA1 171330Z 29006KT 04/02 A3004 RMK A01 T00370020  RH  090%=      5-min Rain = 0
KHA1 171335Z 30006KT 04/03 A3004 RMK A01 T00430026  RH  090%=      5-min Rain = 0
KHA1 171340Z 31007KT 05/03 A3005 RMK A01 T00460028  RH  090%=      5-min Rain = 0
KHA1 171345Z 32009G14KT 05/03 A3005 RMK A01 T00520033  RH  089%=      5-min Rain = 0
KHA1 171350Z 33010KT 06/04 A3005 RMK A01 T00560035  RH  088%=      5-min Rain = 0
KHA1 171355Z 34011G16KT 06/03 A3006 RMK A01 T00580033  RH  085%=      5-min Rain = 0
KHA1 171400Z 34011G17KT 06/03 A3006 RMK A01 T00600031  RH  083%=      5-min Rain = 0
KHA1 171405Z 34013KT 06/03 A3006 RMK A01 T00620030  RH  082%=      5-min Rain = 0
KHA1 171410Z 34012G17KT 06/03 A3006 RMK A01 T00640029  RH  080%=      5-min Rain = 0
KHA1 171415Z 34013G19KT 07/03 A3006 RMK A01 T00650027  RH  078%=      5-min Rain = 0
KHA1 171420Z 35013G19KT 07/03 A3006 RMK A01 T00670026  RH  076%=      5-min Rain = 0
KHA1 171425Z 35013G18KT 07/03 A3006 RMK A01 T00690025  RH  075%=      5-min Rain = 0
KHA1 171430Z 35014G19KT 07/03 A3007 RMK A01 T00720025  RH  073%=      5-min Rain = 0
KHA1 171435Z 35013G18KT 07/03 A3007 RMK A01 T00730025  RH  073%=      5-min Rain = 0
KHA1 171440Z 35016KT 08/02 A3007 RMK A01 T00750024  RH  071%=      5-min Rain = 0
KHA1 171445Z 35014G19KT 08/02 A3007 RMK A01 T00770024  RH  070%=      5-min Rain = 0
KHA1 171450Z 35013G20KT 08/03 A3008 RMK A01 T00800025  RH  069%=      5-min Rain = 0
KHA1 171455Z 35015G22KT 08/02 A3008 RMK A01 T00820024  RH  068%=      5-min Rain = 0
KHA1 171500Z 35017G23KT 09/02 A3008 RMK A01 T00850024  RH  067%=      5-min Rain = 0
KHA1 171505Z 35017G25KT 09/02 A3008 RMK A01 T00860023  RH  066%=      5-min Rain = 0
KHA1 171510Z 35018G25KT 09/02 A3008 RMK A01 T00870022  RH  065%=      5-min Rain = 0
KHA1 171515Z 36017G24KT 09/02 A3008 RMK A01 T00900023  RH  064%=      5-min Rain = 0
KHA1 171520Z 36018G24KT 09/02 A3008 RMK A01 T00920023  RH  063%=      5-min Rain = 0
KHA1 171525Z 36017G24KT 10/02 A3009 RMK A01 T00970024  RH  062%=      5-min Rain = 0
KHA1 171530Z 00018G25KT 10/02 A3009 RMK A01 T01010023  RH  060%=      5-min Rain = 0
KHA1 171535Z 00019G25KT 10/02 A3009 RMK A01 T01030022  RH  058%=      5-min Rain = 0
KHA1 171540Z 00020G30KT 11/02 A3009 RMK A01 T01070022  RH  057%=      5-min Rain = 0
KHA1 171545Z 01019G30KT 11/02 A3009 RMK A01 T01090022  RH  056%=      5-min Rain = 0
KHA1 171550Z 01019G27KT 11/02 A3009 RMK A01 T01100023  RH  056%=      5-min Rain = 0
KHA1 171555Z 01021G29KT 11/02 A3009 RMK A01 T01120023  RH  055%=      5-min Rain = 0
KHA1 171600Z 01019G30KT 11/02 A3009 RMK A01 T01140024  RH  055%=      5-min Rain = 0
KHA1 171605Z 01019G24KT 12/03 A3009 RMK A01 T01170025  RH  054%=      5-min Rain = 0
KHA1 171610Z 01021G29KT 12/02 A3009 RMK A01 T01170024  RH  054%=      5-min Rain = 0
KHA1 171615Z 01021G30KT 12/03 A3009 RMK A01 T01190025  RH  053%=      5-min Rain = 0
KHA1 171620Z 02022G30KT 12/03 A3009 RMK A01 T01210025  RH  053%=      5-min Rain = 0
KHA1 171625Z 01022G28KT 12/03 A301 RMK A01 T01230025  RH  052%=      5-min Rain = 0
KHA1 171630Z 01021G28KT 12/03 A301 RMK A01 T01240026  RH  052%=      5-min Rain = 0
KHA1 171635Z 01021G27KT 13/03 A301 RMK A01 T01260026  RH  051%=      5-min Rain = 0
KHA1 171640Z 02019G27KT 13/03 A301 RMK A01 T01300028  RH  051%=      5-min Rain = 0
KHA1 171645Z 01018G24KT 13/03 A301 RMK A01 T01310027  RH  050%=      5-min Rain = 0
KHA1 171650Z 01018G25KT 13/03 A301 RMK A01 T01330027  RH  050%=      5-min Rain = 0
KHA1 171655Z 02019G25KT 13/03 A301 RMK A01 T01340027  RH  049%=      5-min Rain = 0
KHA1 171700Z 01018G25KT 14/03 A301 RMK A01 T01350028  RH  049%=      5-min Rain = 0
KHA1 171705Z 01019G26KT 14/03 A301 RMK A01 T01360027  RH  048%=      5-min Rain = 0
KHA1 171710Z 01019G26KT 14/03 A301 RMK A01 T01390028  RH  048%=      5-min Rain = 0
KHA1 171715Z 01016G21KT 14/03 A301 RMK A01 T01400029  RH  048%=      5-min Rain = 0
KHA1 171720Z 01017G23KT 14/03 A301 RMK A01 T01410028  RH  047%=      5-min Rain = 0
KHA1 171725Z 01017G24KT 14/03 A3009 RMK A01 T01410029  RH  047%=      5-min Rain = 0
KHA1 171730Z 02016G21KT 14/03 A3009 RMK A01 T01430029  RH  047%=      5-min Rain = 0
KHA1 171735Z 01015G22KT 15/03 A3009 RMK A01 T01450030  RH  047%=      5-min Rain = 0
KHA1 171740Z 00016G22KT 14/03 A3009 RMK A01 T01440029  RH  047%=      5-min Rain = 0
KHA1 171745Z 01015G20KT 15/03 A3009 RMK A01 T01460030  RH  047%=      5-min Rain = 0
KHA1 171750Z 01015G21KT 15/03 A3009 RMK A01 T01470030  RH  046%=      5-min Rain = 0
KHA1 171755Z 01017KT 15/03 A3009 RMK A01 T01460029  RH  046%=      5-min Rain = 0
KHA1 171800Z 01016KT 15/03 A3008 RMK A01 T01480030  RH  046%=      5-min Rain = 0
KHA1 171805Z 02014KT 15/03 A3009 RMK A01 T01520030  RH  045%=      5-min Rain = 0
KHA1 171810Z 01014G19KT 15/03 A3008 RMK A01 T01530032  RH  045%=      5-min Rain = 0
KHA1 171815Z 02016KT 15/03 A3008 RMK A01 T01530030  RH  044%=      5-min Rain = 0
KHA1 171820Z 02013KT 16/03 A3008 RMK A01 T01570033  RH  044%=      5-min Rain = 0
KHA1 171825Z 01013KT 16/03 A3008 RMK A01 T01600032  RH  043%=      5-min Rain = 0
KHA1 171830Z 01014KT 16/03 A3008 RMK A01 T01600032  RH  043%=      5-min Rain = 0
KHA1 171835Z 01014G19KT 16/03 A3008 RMK A01 T01600032  RH  043%=      5-min Rain = 0
KHA1 171840Z 02013G18KT 16/03 A3008 RMK A01 T01630031  RH  042%=      5-min Rain = 0
KHA1 171845Z 02014G19KT 16/03 A3008 RMK A01 T01630032  RH  042%=      5-min Rain = 0
KHA1 171850Z 01012G19KT 17/03 A3008 RMK A01 T01650032  RH  042%=      5-min Rain = 0
KHA1 171855Z 00012G18KT 17/03 A3007 RMK A01 T01670032  RH  041%=      5-min Rain = 0
KHA1 171900Z 36013G18KT 17/03 A3007 RMK A01 T01670033  RH  041%=      5-min Rain = 0
KHA1 171905Z 00013G18KT 17/03 A3007 RMK A01 T01670032  RH  041%=      5-min Rain = 0
KHA1 171910Z 02013G19KT 17/03 A3007 RMK A01 T01690032  RH  041%=      5-min Rain = 0
KHA1 171915Z 02013G20KT 17/03 A3007 RMK A01 T01700033  RH  041%=      5-min Rain = 0
KHA1 171920Z 01014G20KT 17/03 A3007 RMK A01 T01730033  RH  040%=      5-min Rain = 0
KHA1 171925Z 01015G20KT 17/03 A3007 RMK A01 T01700031  RH  040%=      5-min Rain = 0
KHA1 171930Z 01014G21KT 17/03 A3006 RMK A01 T01740033  RH  040%=      5-min Rain = 0
KHA1 171935Z 01013G20KT 17/03 A3006 RMK A01 T01740032  RH  039%=      5-min Rain = 0
KHA1 171940Z 01016G23KT 18/03 A3006 RMK A01 T01760032  RH  039%=      5-min Rain = 0
KHA1 171945Z 01015G21KT 18/03 A3006 RMK A01 T01770033  RH  039%=      5-min Rain = 0
KHA1 171950Z 01013G18KT 18/03 A3006 RMK A01 T01780032  RH  039%=      5-min Rain = 0
KHA1 171955Z 01017G22KT 18/03 A3005 RMK A01 T01750032  RH  039%=      5-min Rain = 0
KHA1 172000Z 01016G22KT 18/03 A3005 RMK A01 T01760031  RH  039%=      5-min Rain = 0
KHA1 172005Z 01017KT 18/03 A3006 RMK A01 T01750031  RH  039%=      5-min Rain = 0
KHA1 172010Z 00016G21KT 17/03 A3005 RMK A01 T01740030  RH  039%=      5-min Rain = 0
KHA1 172015Z 01014KT 18/03 A3005 RMK A01 T01780032  RH  038%=      5-min Rain = 0
KHA1 172020Z 02015KT 18/03 A3005 RMK A01 T01770032  RH  039%=      5-min Rain = 0
KHA1 172025Z 01014G21KT 18/03 A3005 RMK A01 T01770031  RH  039%=      5-min Rain = 0
KHA1 172030Z 01013G18KT 18/03 A3005 RMK A01 T01800033  RH  038%=      5-min Rain = 0
KHA1 172035Z 35013G18KT 18/03 A3004 RMK A01 T01790033  RH  038%=      5-min Rain = 0
KHA1 172040Z 01014G20KT 18/03 A3004 RMK A01 T01800032  RH  038%=      5-min Rain = 0
KHA1 172045Z 01013G20KT 18/03 A3004 RMK A01 T01800032  RH  038%=      5-min Rain = 0
KHA1 172050Z 02014KT 18/03 A3004 RMK A01 T01790031  RH  038%=      5-min Rain = 0
KHA1 172055Z 01013KT 18/03 A3004 RMK A01 T01780032  RH  038%=      5-min Rain = 0
KHA1 172100Z 01011KT 18/03 A3004 RMK A01 T01800033  RH  038%=      5-min Rain = 0
KHA1 172105Z 00009KT 18/03 A3004 RMK A01 T01820034  RH  038%=      5-min Rain = 0
KHA1 172110Z 01011G16KT 18/03 A3004 RMK A01 T01810032  RH  038%=      5-min Rain = 0
KHA1 172115Z 02011KT 18/03 A3004 RMK A01 T01800033  RH  038%=      5-min Rain = 0
KHA1 172120Z 00010KT 18/03 A3004 RMK A01 T01790032  RH  038%=      5-min Rain = 0
KHA1 172125Z 01010KT 18/03 A3004 RMK A01 T01800034  RH  038%=      5-min Rain = 0
KHA1 172130Z 00012KT 18/03 A3004 RMK A01 T01800033  RH  038%=      5-min Rain = 0
KHA1 172135Z 01008KT 18/03 A3004 RMK A01 T01820034  RH  038%=      5-min Rain = 0
KHA1 172140Z 36008KT 18/03 A3004 RMK A01 T01830034  RH  038%=      5-min Rain = 0
KHA1 172145Z 00009KT 18/03 A3004 RMK A01 T01800034  RH  038%=      5-min Rain = 0
KHA1 172150Z 01010KT 18/03 A3004 RMK A01 T01790034  RH  039%=      5-min Rain = 0
KHA1 172155Z 35010KT 18/03 A3004 RMK A01 T01780034  RH  039%=      5-min Rain = 0
KHA1 172200Z 01010KT 18/03 A3004 RMK A01 T01780034  RH  039%=      5-min Rain = 0
KHA1 172205Z 01010KT 18/03 A3004 RMK A01 T01760033  RH  039%=      5-min Rain = 0
KHA1 172210Z 35010KT 18/03 A3004 RMK A01 T01760033  RH  039%=      5-min Rain = 0
KHA1 172215Z 00009KT 18/03 A3004 RMK A01 T01760033  RH  039%=      5-min Rain = 0
KHA1 172220Z 36008KT 18/03 A3004 RMK A01 T01760034  RH  040%=      5-min Rain = 0
KHA1 172225Z 35009KT 18/03 A3004 RMK A01 T01750034  RH  040%=      5-min Rain = 0
KHA1 172230Z 01009KT 18/03 A3004 RMK A01 T01750034  RH  040%=      5-min Rain = 0
KHA1 172235Z 01007KT 17/03 A3004 RMK A01 T01730033  RH  040%=      5-min Rain = 0
KHA1 172240Z 36007KT 17/03 A3004 RMK A01 T01730033  RH  040%=      5-min Rain = 0
KHA1 172245Z 35009KT 17/03 A3004 RMK A01 T01710033  RH  041%=      5-min Rain = 0
KHA1 172250Z 36007KT 17/03 A3004 RMK A01 T01700033  RH  041%=      5-min Rain = 0
KHA1 172255Z 00008KT 17/03 A3004 RMK A01 T01680033  RH  041%=      5-min Rain = 0
KHA1 172300Z 01007KT 17/03 A3004 RMK A01 T01660033  RH  042%=      5-min Rain = 0
KHA1 172305Z 01007KT 16/03 A3004 RMK A01 T01640032  RH  042%=      5-min Rain = 0
KHA1 172310Z 01007KT 16/03 A3004 RMK A01 T01620031  RH  042%=      5-min Rain = 0
KHA1 172315Z 01006KT 16/03 A3004 RMK A01 T01570032  RH  044%=      5-min Rain = 0
KHA1 172320Z 01006KT 15/03 A3004 RMK A01 T01530031  RH  045%=      5-min Rain = 0
KHA1 172325Z 00006KT 15/03 A3005 RMK A01 T01470031  RH  046%=      5-min Rain = 0
KHA1 172330Z 00006KT 14/03 A3005 RMK A01 T01400029  RH  048%=      5-min Rain = 0
KHA1 172335Z 01006KT 13/03 A3005 RMK A01 T01340028  RH  050%=      5-min Rain = 0
KHA1 172340Z 01006KT 13/03 A3005 RMK A01 T01270027  RH  051%=      5-min Rain = 0
KHA1 172345Z 01006KT 12/03 A3005 RMK A01 T01220028  RH  053%=      5-min Rain = 0
KHA1 172350Z 01005KT 12/03 A3005 RMK A01 T01190027  RH  054%=      5-min Rain = 0
KHA1 172355Z 01004KT 11/03 A3005 RMK A01 T01140028  RH  056%=      5-min Rain = 0
KHA1 180000Z 01005KT 11/03 A3005 RMK A01 T01080027  RH  058%=      5-min Rain = 0
KHA1 180005Z 01005KT 11/03 A3005 RMK A01 T01120028  RH  057%=      5-min Rain = 0
KHA1 180010Z 01005KT 11/03 A3005 RMK A01 T01050027  RH  059%=      5-min Rain = 0
KHA1 180015Z 01004KT 11/03 A3006 RMK A01 T01060029  RH  060%=      5-min Rain = 0
KHA1 180020Z 01004KT 10/03 A3006 RMK A01 T01020027  RH  061%=      5-min Rain = 0
KHA1 180025Z 00005KT 11/03 A3006 RMK A01 T01060029  RH  060%=      5-min Rain = 0
KHA1 180030Z 00005KT 10/02 A3006 RMK A01 T00980024  RH  061%=      5-min Rain = 0
KHA1 180035Z 01006KT 09/02 A3006 RMK A01 T00920024  RH  064%=      5-min Rain = 0
KHA1 180040Z 01006KT 09/02 A3006 RMK A01 T00870023  RH  065%=      5-min Rain = 0
KHA1 180045Z 01006KT 09/02 A3006 RMK A01 T00860023  RH  066%=      5-min Rain = 0
KHA1 180050Z 01005KT 08/02 A3007 RMK A01 T00820022  RH  067%=      5-min Rain = 0
KHA1 180055Z 01004KT 08/03 A3007 RMK A01 T00830025  RH  068%=      5-min Rain = 0
KHA1 180100Z 01004KT 09/03 A3007 RMK A01 T00850027  RH  068%=      5-min Rain = 0
KHA1 180105Z 01005KT 09/03 A3007 RMK A01 T00860028  RH  068%=      5-min Rain = 0
KHA1 180110Z 01004KT 09/03 A3007 RMK A01 T00850025  RH  067%=      5-min Rain = 0
KHA1 180115Z 01004KT 08/02 A3007 RMK A01 T00820024  RH  068%=      5-min Rain = 0
KHA1 180120Z 01005KT 08/02 A3007 RMK A01 T00790023  RH  069%=      5-min Rain = 0
KHA1 180125Z 01006KT 07/02 A3007 RMK A01 T00710019  RH  070%=      5-min Rain = 0
KHA1 180130Z 01007KT 06/02 A3007 RMK A01 T00640019  RH  074%=      5-min Rain = 0
KHA1 180135Z 01008KT 07/03 A3007 RMK A01 T00710027  RH  075%=      5-min Rain = 0
KHA1 180140Z 01008KT 08/03 A3007 RMK A01 T00760027  RH  073%=      5-min Rain = 0
KHA1 180145Z 01009KT 08/03 A3007 RMK A01 T00780028  RH  072%=      5-min Rain = 0
KHA1 180150Z 01009KT 08/03 A3007 RMK A01 T00820029  RH  071%=      5-min Rain = 0
KHA1 180155Z 01007KT 09/03 A3007 RMK A01 T00860029  RH  069%=      5-min Rain = 0
KHA1 180200Z 01005KT 08/03 A3007 RMK A01 T00840027  RH  069%=      5-min Rain = 0
KHA1 180205Z 00003KT 08/03 A3007 RMK A01 T00810026  RH  070%=      5-min Rain = 0
KHA1 180210Z 00004KT 08/03 A3007 RMK A01 T00810028  RH  070%=      5-min Rain = 0
KHA1 180215Z 01005KT 08/03 A3007 RMK A01 T00800026  RH  070%=      5-min Rain = 0
KHA1 180220Z 00005KT 07/02 A3007 RMK A01 T00720022  RH  072%=      5-min Rain = 0
KHA1 180225Z 00002KT 07/03 A3008 RMK A01 T00730027  RH  074%=      5-min Rain = 0
KHA1 180230Z 04000KT 08/03 A3008 RMK A01 T00810030  RH  072%=      5-min Rain = 0
KHA1 180235Z 03001KT 08/03 A3008 RMK A01 T00840028  RH  069%=      5-min Rain = 0
KHA1 180240Z 02002KT 08/03 A3008 RMK A01 T00840029  RH  069%=      5-min Rain = 0
KHA1 180245Z 01003KT 09/03 A3008 RMK A01 T00900029  RH  067%=      5-min Rain = 0
KHA1 180250Z 01001KT 09/03 A3008 RMK A01 T00890026  RH  066%=      5-min Rain = 0
KHA1 180255Z 22001KT 08/02 A3008 RMK A01 T00820023  RH  067%=      5-min Rain = 0
KHA1 180300Z 23000KT 07/02 A3009 RMK A01 T00720019  RH  070%=      5-min Rain = 0
KHA1 180305Z 35001KT 07/02 A3008 RMK A01 T00670020  RH  073%=      5-min Rain = 0
KHA1 180310Z 35002KT 07/02 A3008 RMK A01 T00690024  RH  074%=      5-min Rain = 0
KHA1 180315Z 35002KT 06/02 A3008 RMK A01 T00640018  RH  074%=      5-min Rain = 0
KHA1 180320Z 33002KT 05/01 A3008 RMK A01 T00540011  RH  075%=      5-min Rain = 0
KHA1 180325Z 33002KT 05/01 A3008 RMK A01 T00490011  RH  077%=      5-min Rain = 0
KHA1 180330Z 34002KT 05/01 A3008 RMK A01 T00490013  RH  079%=      5-min Rain = 0
KHA1 180335Z 35002KT 05/01 A3008 RMK A01 T00470013  RH  080%=      5-min Rain = 0
KHA1 180340Z 34002KT 05/02 A3008 RMK A01 T00490017  RH  081%=      5-min Rain = 0
KHA1 180345Z 32002KT 05/02 A3008 RMK A01 T00520020  RH  081%=      5-min Rain = 0
KHA1 180350Z 27001KT 06/02 A3008 RMK A01 T00550021  RH  080%=      5-min Rain = 0
KHA1 180355Z 26001KT 06/02 A3008 RMK A01 T00570023  RH  080%=      5-min Rain = 0
KHA1 180400Z 27001KT 06/02 A3008 RMK A01 T00580021  RH  079%=      5-min Rain = 0
KHA1 180405Z 28001KT 06/03 A3008 RMK A01 T00600025  RH  079%=      5-min Rain = 0
KHA1 180410Z 29001KT 06/03 A3008 RMK A01 T00640026  RH  078%=      5-min Rain = 0
KHA1 180415Z 29001KT 06/02 A3008 RMK A01 T00620021  RH  076%=      5-min Rain = 0
KHA1 180420Z 29002KT 06/02 A3008 RMK A01 T00550015  RH  077%=      5-min Rain = 0
KHA1 180425Z 28001KT 05/02 A3008 RMK A01 T00510015  RH  079%=      5-min Rain = 0
KHA1 180430Z 29001KT 05/02 A3008 RMK A01 T00520018  RH  080%=      5-min Rain = 0
KHA1 180435Z 31001KT 05/02 A3008 RMK A01 T00520018  RH  080%=      5-min Rain = 0
KHA1 180440Z 30001KT 06/02 A3007 RMK A01 T00580024  RH  080%=      5-min Rain = 0
KHA1 180445Z 21004KT 06/02 A3007 RMK A01 T00550017  RH  078%=      5-min Rain = 0
KHA1 180450Z 21007KT 05/02 A3008 RMK A01 T00470015  RH  081%=      5-min Rain = 0
KHA1 180455Z 20007KT 05/02 A3008 RMK A01 T00500019  RH  082%=      5-min Rain = 0
KHA1 180500Z 21006KT 05/02 A3008 RMK A01 T00520021  RH  082%=      5-min Rain = 0
KHA1 180505Z 21006KT 05/02 A3008 RMK A01 T00530021  RH  081%=      5-min Rain = 0
KHA1 180510Z 22005KT 05/02 A3007 RMK A01 T00520020  RH  081%=      5-min Rain = 0
KHA1 180515Z 22005KT 05/02 A3007 RMK A01 T00510020  RH  081%=      5-min Rain = 0
KHA1 180520Z 24004KT 05/02 A3007 RMK A01 T00500019  RH  082%=      5-min Rain = 0
KHA1 180525Z 25005KT 05/02 A3007 RMK A01 T00490019  RH  082%=      5-min Rain = 0
KHA1 180530Z 25004KT 05/02 A3007 RMK A01 T00490019  RH  082%=      5-min Rain = 0
KHA1 180535Z 23005KT 05/02 A3006 RMK A01 T00490019  RH  082%=      5-min Rain = 0
KHA1 180540Z 23004KT 05/02 A3006 RMK A01 T00470018  RH  082%=      5-min Rain = 0
KHA1 180545Z 24005KT 05/02 A3006 RMK A01 T00500021  RH  083%=      5-min Rain = 0
KHA1 180550Z 23004KT 05/02 A3006 RMK A01 T00510020  RH  082%=      5-min Rain = 0
KHA1 180555Z 23005KT 05/02 A3005 RMK A01 T00530021  RH  081%=      5-min Rain = 0

Page generated in 0.0111 seconds.